Abiquiu, New Mexico
Current Conditions -  °F | °C
As of 8:55 PM on Wednesday 22 Oct 2014 (Local Time) from KLAM Reporting Station
Clear Clear  
Wind Chill: 14°   Ceiling: Unl
Heat Index: 14°   Visibility: 10mi
Dew Point:   Wind: 5mph
Humidity: 38%   Direction: 290°WNW
Pressure: 30.27"   Gusts: NA
Location:  36.21°N, 106.32°W
Report Text: KLAM 230255Z AUTO 29004KT 10SM CLR 14/00 A3027 RMK AO2 T01400000
Loading
Personal Weather Stations






























Interactive Weather Map
Tropical Storm Tracking
New forecast layout! Learn more

10-Day Weather Forecast

Advertisements
Track Severe Weather on mobile